CheckWX is a tool to help pilots better visualize weather data.  It is not intended as a substitute for an official pre-flight weather briefing.

16:56:24 UTC

DNPO TAF
Port Harcourt International Airport
Port Harcourt, Nigeria
TAF DNPO 180940Z 1812/1918 23010KT 9999 BKN012 FEW020CB TEMPO 1815/1819 TS PROB30 1816/1819 5000 -TSRA BKN008 FEW018CB BECMG 1824/1902 VRB02KT SCT008

Jun-18@
12:00 UTC

Jun-18 @ 12:00 UTC

Jun-19@
00:00 UTC

Jun-19 @ 00:00 UTC

TAF DNPO 180940Z 1812/1918 23010KT 9999 BKN012 FEW020CB
Wind
  • 230° at 10 KTS
Cloud Levels
  • Broken at 1,200' AGL
  • Few at 2,000' AGL

Jun-18@
15:00 UTC

Jun-18 @ 15:00 UTC

Jun-18@
19:00 UTC

Jun-18 @ 19:00 UTC

TEMPO 1815/1819 TS

Temporary

Temporary Changes expected for less than half the time period

Conditions
Thunderstorm

Jun-18@
16:00 UTC

Jun-18 @ 16:00 UTC

Jun-18@
19:00 UTC

Jun-18 @ 19:00 UTC

PROB30 1816/1819 5000 -TSRA BKN008 FEW018CB

Probable - 30% Likelihood

Probable - 30% Likelihood during this time.

Conditions
Light Thunderstorm, Light Rain
Cloud Levels
  • Broken at 800' AGL
  • Few at 1,800' AGL

Jun-19@
00:00 UTC

Jun-19 @ 00:00 UTC

Jun-19@
18:00 UTC

Jun-19 @ 18:00 UTC

Becoming

Becoming Conditions expected by Wed, Jun 19, 2019 @ 02:00 UTC

Wind
  • Variable at 2 KTS
Cloud Levels
  • Scattered at 800' AGL